Weather at La Orchila Airport

Public forecast

Using degrees Celsius for public forecast. Weather courtesy of forecast.io.

Current aviation weather report (METAR) for La Orchila Airport

Report is more than 6 hours old.

Retrieved 2020/09/07 20:02 UTC (18 days ago):

SVLO 072002Z AUTO 00000KT NCD 0/// Q////

Closest aviation forecast (TAF) to La Orchila Airport

Closest forecast is Simón Bolívar International Airport, 86.8 nm (160.7 km) SSW. Retrieved 2020-09-26 00:08 UTC (2 hours ago):

TAF SVMI 252200Z 2600/2700 08006KT 9999 FEW016 TX33/2618Z TN23/2608Z BECMG 2600/2604 36004KT 9999 SCT016